KMAE

Details ICAO KMAE (MAE)
Name KMAE - Madera Muni
Region United States
Timezone America/Los_Angeles (UTC-7.0)
Plans Departing 15
Arriving 2
Stats Elevation 253 ft / 77 m (AMSL)
Location 36.985976° -120.112681°
Runways 2
Magnetic Variation 12.907° E
Sunrise 2018-05-24 12:47:32 UTC / 2018-05-24 05:47:32 Local
Sunset 2018-05-25 03:09:59 UTC / 2018-05-24 20:09:59 Local
Advertisement - Login to hide

Runways

ID Width Length Bearing (true) Bearing (mag) Surface Threshold Offset Overrun Length
07 150 ft / 46 m 3,697 ft / 1,127 m 90.05° 77.14° Asphalt 0 ft / 0 m 0 ft / 0 m
12 150 ft / 46 m 5,550 ft / 1,692 m 135.10° 122.19° Asphalt 0 ft / 0 m 210 ft / 64 m
25 150 ft / 46 m 3,697 ft / 1,127 m 270.06° 257.15° Asphalt 0 ft / 0 m 0 ft / 0 m
30 150 ft / 46 m 5,550 ft / 1,692 m 315.11° 302.20° Asphalt 0 ft / 0 m 207 ft / 63 m

Map

Weather


0- 5 10 15 20 25 30 35+ Temperature / ° C

Clouds and Precipitation
Forecast for 2018-05-24 12:00 UTC. Updated an hour ago

Ground ~20,000 ft ~40,000 ft Winds

METAR

KMAE 240953Z AUTO 31009KT 10SM CLR 14/09 A2994 RMK AO2 SLP137 T01390094

TAF

Not found

Frequencies

Recorded 134.72 MHz Madera AWOS
Unicom 122.80 MHz Madera CTAF
Warning: Do not use this data for real-world aviation or navigation. No guarantee of current accuracy is given.